sensor_id;sensor_type;location;lat;lon;timestamp;P1;durP1;ratioP1;P2;durP2;ratioP2
27666;SDS011;15074;50.940;5.282;2023-04-01T00:01:09;2.92;;;0.90;;
27666;SDS011;15074;50.940;5.282;2023-04-01T00:03:37;2.75;;;0.75;;
27666;SDS011;15074;50.940;5.282;2023-04-01T00:06:03;3.03;;;0.85;;
27666;SDS011;15074;50.940;5.282;2023-04-01T00:08:29;2.45;;;0.80;;
27666;SDS011;15074;50.940;5.282;2023-04-01T00:10:55;3.72;;;0.90;;
27666;SDS011;15074;50.940;5.282;2023-04-01T00:13:22;3.17;;;1.10;;
27666;SDS011;15074;50.940;5.282;2023-04-01T00:15:50;1.23;;;0.52;;
27666;SDS011;15074;50.940;5.282;2023-04-01T00:18:16;2.78;;;0.60;;
27666;SDS011;15074;50.940;5.282;2023-04-01T00:20:45;2.35;;;0.80;;
27666;SDS011;15074;50.940;5.282;2023-04-01T00:23:13;4.25;;;0.88;;
27666;SDS011;15074;50.940;5.282;2023-04-01T00:25:39;3.58;;;0.68;;
27666;SDS011;15074;50.940;5.282;2023-04-01T00:28:05;0.80;;;0.50;;
27666;SDS011;15074;50.940;5.282;2023-04-01T00:30:30;3.47;;;0.80;;
27666;SDS011;15074;50.940;5.282;2023-04-01T00:32:56;3.17;;;0.75;;
27666;SDS011;15074;50.940;5.282;2023-04-01T00:35:22;2.55;;;0.73;;
27666;SDS011;15074;50.940;5.282;2023-04-01T00:37:48;2.47;;;0.63;;
27666;SDS011;15074;50.940;5.282;2023-04-01T00:43:17;2.05;;;1.05;;
27666;SDS011;15074;50.940;5.282;2023-04-01T00:45:45;1.40;;;0.80;;
27666;SDS011;15074;50.940;5.282;2023-04-01T00:50:48;3.17;;;1.40;;
27666;SDS011;15074;50.940;5.282;2023-04-01T00:53:30;3.42;;;2.80;;
27666;SDS011;15074;50.940;5.282;2023-04-01T00:56:03;2.92;;;1.20;;
27666;SDS011;15074;50.940;5.282;2023-04-01T00:58:33;1.58;;;0.88;;
27666;SDS011;15074;50.940;5.282;2023-04-01T01:01:03;4.35;;;1.88;;
27666;SDS011;15074;50.940;5.282;2023-04-01T01:03:30;1.77;;;0.82;;
27666;SDS011;15074;50.940;5.282;2023-04-01T01:11:42;4.55;;;2.05;;
27666;SDS011;15074;50.940;5.282;2023-04-01T01:14:18;3.55;;;1.30;;
27666;SDS011;15074;50.940;5.282;2023-04-01T01:22:40;2.72;;;1.58;;
27666;SDS011;15074;50.940;5.282;2023-04-01T01:25:38;6.03;;;1.60;;
27666;SDS011;15074;50.940;5.282;2023-04-01T01:33:48;2.78;;;1.33;;
27666;SDS011;15074;50.940;5.282;2023-04-01T01:36:16;5.20;;;2.17;;
27666;SDS011;15074;50.940;5.282;2023-04-01T01:38:43;5.00;;;1.38;;
27666;SDS011;15074;50.940;5.282;2023-04-01T01:41:11;4.43;;;1.75;;
27666;SDS011;15074;50.940;5.282;2023-04-01T01:43:42;4.45;;;1.50;;
27666;SDS011;15074;50.940;5.282;2023-04-01T01:46:14;3.45;;;1.40;;
27666;SDS011;15074;50.940;5.282;2023-04-01T01:48:43;2.83;;;1.10;;
27666;SDS011;15074;50.940;5.282;2023-04-01T01:51:10;3.15;;;1.00;;
27666;SDS011;15074;50.940;5.282;2023-04-01T01:53:36;1.88;;;0.90;;
27666;SDS011;15074;50.940;5.282;2023-04-01T01:56:03;4.47;;;0.90;;
27666;SDS011;15074;50.940;5.282;2023-04-01T02:03:25;3.60;;;0.95;;
27666;SDS011;15074;50.940;5.282;2023-04-01T02:05:55;1.73;;;1.10;;
27666;SDS011;15074;50.940;5.282;2023-04-01T02:08:24;3.45;;;1.40;;
27666;SDS011;15074;50.940;5.282;2023-04-01T02:10:59;2.47;;;1.08;;
27666;SDS011;15074;50.940;5.282;2023-04-01T02:16:28;1.73;;;1.10;;
27666;SDS011;15074;50.940;5.282;2023-04-01T02:18:59;3.03;;;1.10;;
27666;SDS011;15074;50.940;5.282;2023-04-01T02:21:32;2.65;;;1.25;;
27666;SDS011;15074;50.940;5.282;2023-04-01T02:24:00;2.17;;;1.20;;
27666;SDS011;15074;50.940;5.282;2023-04-01T02:26:29;3.17;;;1.35;;
27666;SDS011;15074;50.940;5.282;2023-04-01T02:28:55;3.20;;;1.10;;
27666;SDS011;15074;50.940;5.282;2023-04-01T02:31:23;1.73;;;1.05;;
27666;SDS011;15074;50.940;5.282;2023-04-01T02:33:50;2.40;;;0.90;;
27666;SDS011;15074;50.940;5.282;2023-04-01T02:36:17;0.95;;;0.80;;
27666;SDS011;15074;50.940;5.282;2023-04-01T02:38:43;1.02;;;0.80;;
27666;SDS011;15074;50.940;5.282;2023-04-01T02:41:10;2.17;;;1.00;;
27666;SDS011;15074;50.940;5.282;2023-04-01T02:43:37;1.30;;;0.90;;
27666;SDS011;15074;50.940;5.282;2023-04-01T02:46:03;1.27;;;1.00;;
27666;SDS011;15074;50.940;5.282;2023-04-01T02:48:28;2.53;;;0.75;;
27666;SDS011;15074;50.940;5.282;2023-04-01T02:50:55;1.90;;;0.82;;
27666;SDS011;15074;50.940;5.282;2023-04-01T02:53:21;1.13;;;0.90;;
27666;SDS011;15074;50.940;5.282;2023-04-01T02:55:47;0.90;;;0.70;;
27666;SDS011;15074;50.940;5.282;2023-04-01T02:58:15;2.70;;;0.90;;
27666;SDS011;15074;50.940;5.282;2023-04-01T03:00:41;3.22;;;2.92;;
27666;SDS011;15074;50.940;5.282;2023-04-01T03:03:07;2.30;;;1.60;;
27666;SDS011;15074;50.940;5.282;2023-04-01T03:05:33;2.58;;;2.08;;
27666;SDS011;15074;50.940;5.282;2023-04-01T03:07:59;2.70;;;1.25;;
27666;SDS011;15074;50.940;5.282;2023-04-01T03:10:25;1.70;;;1.10;;
27666;SDS011;15074;50.940;5.282;2023-04-01T03:12:51;3.28;;;2.25;;
27666;SDS011;15074;50.940;5.282;2023-04-01T03:15:16;1.98;;;1.73;;
27666;SDS011;15074;50.940;5.282;2023-04-01T03:17:42;6.15;;;3.30;;
27666;SDS011;15074;50.940;5.282;2023-04-01T03:20:09;2.70;;;1.60;;
27666;SDS011;15074;50.940;5.282;2023-04-01T03:22:36;4.00;;;1.73;;
27666;SDS011;15074;50.940;5.282;2023-04-01T03:25:02;2.85;;;2.50;;
27666;SDS011;15074;50.940;5.282;2023-04-01T03:27:29;2.42;;;1.95;;
27666;SDS011;15074;50.940;5.282;2023-04-01T03:29:54;5.30;;;1.38;;
27666;SDS011;15074;50.940;5.282;2023-04-01T03:32:20;4.15;;;1.70;;
27666;SDS011;15074;50.940;5.282;2023-04-01T03:34:46;3.22;;;2.28;;
27666;SDS011;15074;50.940;5.282;2023-04-01T03:37:12;3.25;;;1.40;;
27666;SDS011;15074;50.940;5.282;2023-04-01T03:39:37;2.97;;;1.30;;
27666;SDS011;15074;50.940;5.282;2023-04-01T03:42:03;3.22;;;2.90;;
27666;SDS011;15074;50.940;5.282;2023-04-01T03:44:33;4.07;;;2.45;;
27666;SDS011;15074;50.940;5.282;2023-04-01T03:46:59;3.40;;;1.60;;
27666;SDS011;15074;50.940;5.282;2023-04-01T03:49:25;2.80;;;1.75;;
27666;SDS011;15074;50.940;5.282;2023-04-01T03:51:51;2.90;;;1.40;;
27666;SDS011;15074;50.940;5.282;2023-04-01T03:54:17;4.05;;;1.50;;
27666;SDS011;15074;50.940;5.282;2023-04-01T03:56:44;2.88;;;1.70;;
27666;SDS011;15074;50.940;5.282;2023-04-01T03:59:10;3.13;;;2.15;;
27666;SDS011;15074;50.940;5.282;2023-04-01T04:01:36;4.90;;;2.42;;
27666;SDS011;15074;50.940;5.282;2023-04-01T04:04:02;2.63;;;1.83;;
27666;SDS011;15074;50.940;5.282;2023-04-01T04:06:28;3.60;;;2.00;;
27666;SDS011;15074;50.940;5.282;2023-04-01T04:08:54;7.15;;;2.25;;
27666;SDS011;15074;50.940;5.282;2023-04-01T04:11:20;4.07;;;2.13;;
27666;SDS011;15074;50.940;5.282;2023-04-01T04:13:46;2.40;;;1.60;;
27666;SDS011;15074;50.940;5.282;2023-04-01T04:16:17;3.28;;;1.50;;
27666;SDS011;15074;50.940;5.282;2023-04-01T04:18:43;5.28;;;1.83;;
27666;SDS011;15074;50.940;5.282;2023-04-01T04:21:11;3.95;;;2.47;;
27666;SDS011;15074;50.940;5.282;2023-04-01T04:23:38;2.80;;;2.17;;
27666;SDS011;15074;50.940;5.282;2023-04-01T04:26:05;3.97;;;2.10;;
27666;SDS011;15074;50.940;5.282;2023-04-01T04:28:33;2.83;;;1.58;;
27666;SDS011;15074;50.940;5.282;2023-04-01T04:30:59;2.65;;;1.92;;
27666;SDS011;15074;50.940;5.282;2023-04-01T04:33:25;3.80;;;2.15;;
27666;SDS011;15074;50.940;5.282;2023-04-01T04:35:51;3.67;;;1.98;;
27666;SDS011;15074;50.940;5.282;2023-04-01T04:38:20;4.80;;;2.80;;
27666;SDS011;15074;50.940;5.282;2023-04-01T04:40:46;5.45;;;2.70;;
27666;SDS011;15074;50.940;5.282;2023-04-01T04:43:12;5.18;;;2.75;;
27666;SDS011;15074;50.940;5.282;2023-04-01T04:45:39;5.30;;;3.05;;
27666;SDS011;15074;50.940;5.282;2023-04-01T04:48:09;3.92;;;2.78;;
27666;SDS011;15074;50.940;5.282;2023-04-01T04:50:41;7.70;;;4.07;;
27666;SDS011;15074;50.940;5.282;2023-04-01T04:53:09;10.43;;;9.43;;
27666;SDS011;15074;50.940;5.282;2023-04-01T04:55:35;7.30;;;4.85;;
27666;SDS011;15074;50.940;5.282;2023-04-01T04:58:01;9.20;;;7.63;;
27666;SDS011;15074;50.940;5.282;2023-04-01T05:00:26;15.88;;;8.40;;
27666;SDS011;15074;50.940;5.282;2023-04-01T05:02:52;9.63;;;8.52;;
27666;SDS011;15074;50.940;5.282;2023-04-01T05:05:18;5.25;;;4.10;;
27666;SDS011;15074;50.940;5.282;2023-04-01T05:07:44;15.52;;;4.97;;
27666;SDS011;15074;50.940;5.282;2023-04-01T05:10:10;9.60;;;4.47;;
27666;SDS011;15074;50.940;5.282;2023-04-01T05:12:35;8.18;;;5.88;;
27666;SDS011;15074;50.940;5.282;2023-04-01T05:15:04;8.00;;;5.30;;
27666;SDS011;15074;50.940;5.282;2023-04-01T05:17:30;8.85;;;6.72;;
27666;SDS011;15074;50.940;5.282;2023-04-01T05:19:56;8.10;;;5.28;;
27666;SDS011;15074;50.940;5.282;2023-04-01T05:22:22;7.13;;;4.18;;
27666;SDS011;15074;50.940;5.282;2023-04-01T05:24:48;8.35;;;6.13;;
27666;SDS011;15074;50.940;5.282;2023-04-01T05:27:14;10.63;;;5.50;;
27666;SDS011;15074;50.940;5.282;2023-04-01T05:29:40;7.00;;;4.88;;
27666;SDS011;15074;50.940;5.282;2023-04-01T05:32:05;9.85;;;4.68;;
27666;SDS011;15074;50.940;5.282;2023-04-01T05:34:31;11.32;;;6.50;;
27666;SDS011;15074;50.940;5.282;2023-04-01T05:36:57;10.70;;;6.40;;
27666;SDS011;15074;50.940;5.282;2023-04-01T05:39:22;6.85;;;4.57;;
27666;SDS011;15074;50.940;5.282;2023-04-01T05:41:48;7.07;;;4.15;;
27666;SDS011;15074;50.940;5.282;2023-04-01T05:44:14;8.38;;;5.57;;
27666;SDS011;15074;50.940;5.282;2023-04-01T05:46:40;7.90;;;5.65;;
27666;SDS011;15074;50.940;5.282;2023-04-01T05:49:06;7.60;;;5.28;;
27666;SDS011;15074;50.940;5.282;2023-04-01T05:51:32;7.70;;;4.25;;
27666;SDS011;15074;50.940;5.282;2023-04-01T05:53:57;7.22;;;3.95;;
27666;SDS011;15074;50.940;5.282;2023-04-01T05:56:23;5.30;;;4.28;;
27666;SDS011;15074;50.940;5.282;2023-04-01T05:58:51;7.32;;;4.13;;
27666;SDS011;15074;50.940;5.282;2023-04-01T06:01:18;4.57;;;3.33;;
27666;SDS011;15074;50.940;5.282;2023-04-01T06:03:44;3.92;;;2.80;;
27666;SDS011;15074;50.940;5.282;2023-04-01T06:06:13;7.00;;;4.03;;
27666;SDS011;15074;50.940;5.282;2023-04-01T06:08:40;4.60;;;3.53;;
27666;SDS011;15074;50.940;5.282;2023-04-01T06:11:22;5.03;;;3.25;;
27666;SDS011;15074;50.940;5.282;2023-04-01T06:17:09;4.22;;;2.95;;
27666;SDS011;15074;50.940;5.282;2023-04-01T06:25:00;3.97;;;1.90;;
27666;SDS011;15074;50.940;5.282;2023-04-01T06:27:58;3.95;;;2.45;;
27666;SDS011;15074;50.940;5.282;2023-04-01T06:36:15;3.15;;;2.05;;
27666;SDS011;15074;50.940;5.282;2023-04-01T06:54:59;2.03;;;1.67;;
27666;SDS011;15074;50.940;5.282;2023-04-01T06:57:41;1.88;;;1.30;;
27666;SDS011;15074;50.940;5.282;2023-04-01T07:00:13;1.42;;;1.20;;
27666;SDS011;15074;50.940;5.282;2023-04-01T07:02:43;1.45;;;1.00;;
27666;SDS011;15074;50.940;5.282;2023-04-01T07:05:15;1.40;;;1.05;;
27666;SDS011;15074;50.940;5.282;2023-04-01T07:07:48;1.50;;;1.10;;
27666;SDS011;15074;50.940;5.282;2023-04-01T07:13:22;7.97;;;6.63;;
27666;SDS011;15074;50.940;5.282;2023-04-01T07:15:58;5.03;;;4.20;;
27666;SDS011;15074;50.940;5.282;2023-04-01T07:18:47;1.75;;;1.60;;
27666;SDS011;15074;50.940;5.282;2023-04-01T07:21:47;3.38;;;1.70;;
27666;SDS011;15074;50.940;5.282;2023-04-01T07:24:31;1.42;;;1.33;;
27666;SDS011;15074;50.940;5.282;2023-04-01T07:27:00;1.98;;;1.10;;
27666;SDS011;15074;50.940;5.282;2023-04-01T07:29:26;1.23;;;1.02;;
27666;SDS011;15074;50.940;5.282;2023-04-01T07:34:34;1.48;;;0.93;;
27666;SDS011;15074;50.940;5.282;2023-04-01T07:37:28;1.13;;;1.00;;
27666;SDS011;15074;50.940;5.282;2023-04-01T07:40:18;1.55;;;0.90;;
27666;SDS011;15074;50.940;5.282;2023-04-01T07:45:47;1.83;;;1.10;;
27666;SDS011;15074;50.940;5.282;2023-04-01T07:56:51;5.13;;;4.78;;
27666;SDS011;15074;50.940;5.282;2023-04-01T07:59:23;5.38;;;5.03;;
27666;SDS011;15074;50.940;5.282;2023-04-01T08:02:06;1.83;;;1.70;;
27666;SDS011;15074;50.940;5.282;2023-04-01T08:07:45;1.45;;;0.90;;
27666;SDS011;15074;50.940;5.282;2023-04-01T08:10:28;1.00;;;0.77;;
27666;SDS011;15074;50.940;5.282;2023-04-01T08:19:03;1.20;;;1.10;;
27666;SDS011;15074;50.940;5.282;2023-04-01T08:21:52;3.33;;;3.00;;
27666;SDS011;15074;50.940;5.282;2023-04-01T08:24:27;6.97;;;6.57;;
27666;SDS011;15074;50.940;5.282;2023-04-01T08:27:01;6.45;;;5.85;;
27666;SDS011;15074;50.940;5.282;2023-04-01T08:30:19;16.13;;;15.15;;
27666;SDS011;15074;50.940;5.282;2023-04-01T08:32:51;12.20;;;11.43;;
27666;SDS011;15074;50.940;5.282;2023-04-01T08:37:50;2.13;;;1.40;;
27666;SDS011;15074;50.940;5.282;2023-04-01T08:51:48;1.33;;;1.20;;
27666;SDS011;15074;50.940;5.282;2023-04-01T09:27:27;1.52;;;1.02;;
27666;SDS011;15074;50.940;5.282;2023-04-01T09:30:27;1.48;;;1.20;;
27666;SDS011;15074;50.940;5.282;2023-04-01T09:35:46;3.80;;;1.30;;
27666;SDS011;15074;50.940;5.282;2023-04-01T09:43:25;1.88;;;1.58;;
27666;SDS011;15074;50.940;5.282;2023-04-01T09:54:31;3.53;;;1.00;;
27666;SDS011;15074;50.940;5.282;2023-04-01T10:16:56;2.03;;;1.17;;
27666;SDS011;15074;50.940;5.282;2023-04-01T10:20:20;2.47;;;1.50;;
27666;SDS011;15074;50.940;5.282;2023-04-01T10:36:43;3.75;;;1.67;;
27666;SDS011;15074;50.940;5.282;2023-04-01T10:56:11;2.85;;;2.60;;
27666;SDS011;15074;50.940;5.282;2023-04-01T11:45:50;8.82;;;7.93;;
27666;SDS011;15074;50.940;5.282;2023-04-01T12:10:18;5.88;;;5.22;;
27666;SDS011;15074;50.940;5.282;2023-04-01T12:12:59;5.97;;;4.40;;
27666;SDS011;15074;50.940;5.282;2023-04-01T12:15:44;4.20;;;3.80;;
27666;SDS011;15074;50.940;5.282;2023-04-01T12:18:37;3.97;;;3.55;;
27666;SDS011;15074;50.940;5.282;2023-04-01T12:34:55;3.10;;;2.10;;
27666;SDS011;15074;50.940;5.282;2023-04-01T12:54:48;13.70;;;12.80;;
27666;SDS011;15074;50.940;5.282;2023-04-01T13:06:38;5.43;;;4.93;;
27666;SDS011;15074;50.940;5.282;2023-04-01T13:08:43;5.25;;;4.47;;
27666;SDS011;15074;50.940;5.282;2023-04-01T13:11:20;5.53;;;5.07;;
27666;SDS011;15074;50.940;5.282;2023-04-01T13:13:51;5.18;;;4.68;;
27666;SDS011;15074;50.940;5.282;2023-04-01T13:22:45;5.82;;;5.28;;
27666;SDS011;15074;50.940;5.282;2023-04-01T13:28:09;3.83;;;3.42;;
27666;SDS011;15074;50.940;5.282;2023-04-01T13:31:06;3.90;;;3.50;;
27666;SDS011;15074;50.940;5.282;2023-04-01T14:06:02;5.80;;;5.30;;
27666;SDS011;15074;50.940;5.282;2023-04-01T14:11:59;3.50;;;2.90;;
27666;SDS011;15074;50.940;5.282;2023-04-01T14:25:38;2.03;;;1.80;;
27666;SDS011;15074;50.940;5.282;2023-04-01T14:39:48;2.58;;;1.90;;
27666;SDS011;15074;50.940;5.282;2023-04-01T14:47:22;3.33;;;3.03;;
27666;SDS011;15074;50.940;5.282;2023-04-01T14:50:06;2.90;;;2.05;;
27666;SDS011;15074;50.940;5.282;2023-04-01T14:52:38;3.92;;;1.83;;
27666;SDS011;15074;50.940;5.282;2023-04-01T14:58:09;1.50;;;1.40;;
27666;SDS011;15074;50.940;5.282;2023-04-01T15:00:45;1.70;;;1.60;;
27666;SDS011;15074;50.940;5.282;2023-04-01T15:03:17;3.15;;;2.15;;
27666;SDS011;15074;50.940;5.282;2023-04-01T15:11:43;1.90;;;1.70;;
27666;SDS011;15074;50.940;5.282;2023-04-01T15:38:20;2.40;;;2.20;;
27666;SDS011;15074;50.940;5.282;2023-04-01T15:43:49;2.30;;;2.00;;
27666;SDS011;15074;50.940;5.282;2023-04-01T15:51:39;2.72;;;2.53;;
27666;SDS011;15074;50.940;5.282;2023-04-01T15:54:19;2.30;;;2.10;;
27666;SDS011;15074;50.940;5.282;2023-04-01T16:05:28;2.25;;;1.80;;
27666;SDS011;15074;50.940;5.282;2023-04-01T16:10:49;2.17;;;1.40;;
27666;SDS011;15074;50.940;5.282;2023-04-01T16:18:39;1.33;;;1.23;;
27666;SDS011;15074;50.940;5.282;2023-04-01T16:24:05;1.23;;;1.10;;
27666;SDS011;15074;50.940;5.282;2023-04-01T16:29:47;1.08;;;0.98;;
27666;SDS011;15074;50.940;5.282;2023-04-01T16:34:58;1.35;;;0.95;;
27666;SDS011;15074;50.940;5.282;2023-04-01T16:41:05;2.03;;;1.60;;
27666;SDS011;15074;50.940;5.282;2023-04-01T16:43:50;1.52;;;1.42;;
27666;SDS011;15074;50.940;5.282;2023-04-01T16:49:03;2.63;;;2.33;;
27666;SDS011;15074;50.940;5.282;2023-04-01T16:56:45;5.70;;;5.20;;
27666;SDS011;15074;50.940;5.282;2023-04-01T17:01:49;6.05;;;5.55;;
27666;SDS011;15074;50.940;5.282;2023-04-01T17:05:12;6.97;;;6.38;;
27666;SDS011;15074;50.940;5.282;2023-04-01T17:21:38;12.73;;;11.73;;
27666;SDS011;15074;50.940;5.282;2023-04-01T17:24:25;16.73;;;15.60;;
27666;SDS011;15074;50.940;5.282;2023-04-01T17:32:47;10.07;;;9.35;;
27666;SDS011;15074;50.940;5.282;2023-04-01T17:35:22;20.08;;;18.48;;
27666;SDS011;15074;50.940;5.282;2023-04-01T17:38:01;20.08;;;18.77;;
27666;SDS011;15074;50.940;5.282;2023-04-01T17:41:12;10.25;;;9.35;;
27666;SDS011;15074;50.940;5.282;2023-04-01T17:58:02;5.57;;;3.63;;
27666;SDS011;15074;50.940;5.282;2023-04-01T18:00:34;8.57;;;5.57;;
27666;SDS011;15074;50.940;5.282;2023-04-01T18:06:17;5.55;;;5.05;;
27666;SDS011;15074;50.940;5.282;2023-04-01T18:14:13;6.10;;;5.53;;
27666;SDS011;15074;50.940;5.282;2023-04-01T18:17:01;6.07;;;5.55;;
27666;SDS011;15074;50.940;5.282;2023-04-01T18:22:19;6.22;;;5.72;;
27666;SDS011;15074;50.940;5.282;2023-04-01T18:28:39;6.13;;;5.53;;
27666;SDS011;15074;50.940;5.282;2023-04-01T18:30:41;6.10;;;5.53;;
27666;SDS011;15074;50.940;5.282;2023-04-01T18:33:19;5.90;;;5.35;;
27666;SDS011;15074;50.940;5.282;2023-04-01T18:38:49;10.77;;;9.82;;
27666;SDS011;15074;50.940;5.282;2023-04-01T18:49:54;10.27;;;6.07;;
27666;SDS011;15074;50.940;5.282;2023-04-01T18:52:37;8.23;;;7.53;;
27666;SDS011;15074;50.940;5.282;2023-04-01T18:57:52;6.80;;;6.03;;
27666;SDS011;15074;50.940;5.282;2023-04-01T19:05:31;8.02;;;7.22;;
27666;SDS011;15074;50.940;5.282;2023-04-01T19:08:19;10.13;;;7.55;;
27666;SDS011;15074;50.940;5.282;2023-04-01T19:13:44;8.88;;;8.18;;
27666;SDS011;15074;50.940;5.282;2023-04-01T19:19:04;9.20;;;8.40;;
27666;SDS011;15074;50.940;5.282;2023-04-01T19:30:10;10.95;;;9.82;;
27666;SDS011;15074;50.940;5.282;2023-04-01T19:44:09;11.40;;;9.93;;
27666;SDS011;15074;50.940;5.282;2023-04-01T19:49:51;11.18;;;10.05;;
27666;SDS011;15074;50.940;5.282;2023-04-01T19:52:42;10.75;;;9.75;;
27666;SDS011;15074;50.940;5.282;2023-04-01T20:00:57;13.40;;;11.32;;
27666;SDS011;15074;50.940;5.282;2023-04-01T20:06:15;12.25;;;10.93;;
27666;SDS011;15074;50.940;5.282;2023-04-01T20:08:58;14.95;;;11.68;;
27666;SDS011;15074;50.940;5.282;2023-04-01T20:11:41;12.25;;;11.15;;
27666;SDS011;15074;50.940;5.282;2023-04-01T20:20:02;12.85;;;11.65;;
27666;SDS011;15074;50.940;5.282;2023-04-01T20:25:13;13.07;;;11.88;;
27666;SDS011;15074;50.940;5.282;2023-04-01T20:46:48;18.35;;;16.35;;
27666;SDS011;15074;50.940;5.282;2023-04-01T20:49:38;17.02;;;15.30;;
27666;SDS011;15074;50.940;5.282;2023-04-01T20:52:46;16.55;;;15.05;;
27666;SDS011;15074;50.940;5.282;2023-04-01T20:55:27;16.05;;;14.52;;
27666;SDS011;15074;50.940;5.282;2023-04-01T21:11:49;14.65;;;13.23;;
27666;SDS011;15074;50.940;5.282;2023-04-01T21:22:51;8.73;;;7.82;;
27666;SDS011;15074;50.940;5.282;2023-04-01T21:28:16;8.40;;;7.25;;
27666;SDS011;15074;50.940;5.282;2023-04-01T21:33:33;7.53;;;6.82;;
27666;SDS011;15074;50.940;5.282;2023-04-01T21:45:02;8.07;;;7.28;;
27666;SDS011;15074;50.940;5.282;2023-04-01T22:06:31;10.98;;;9.88;;
27666;SDS011;15074;50.940;5.282;2023-04-01T22:09:16;10.32;;;9.32;;
27666;SDS011;15074;50.940;5.282;2023-04-01T22:11:53;10.10;;;9.15;;
27666;SDS011;15074;50.940;5.282;2023-04-01T22:14:30;10.98;;;9.13;;
27666;SDS011;15074;50.940;5.282;2023-04-01T22:17:26;12.55;;;9.95;;
27666;SDS011;15074;50.940;5.282;2023-04-01T22:19:59;10.35;;;9.35;;
27666;SDS011;15074;50.940;5.282;2023-04-01T22:22:49;10.45;;;9.35;;
27666;SDS011;15074;50.940;5.282;2023-04-01T22:25:28;10.50;;;9.50;;
27666;SDS011;15074;50.940;5.282;2023-04-01T22:28:05;8.75;;;7.85;;
27666;SDS011;15074;50.940;5.282;2023-04-01T22:30:39;6.80;;;6.07;;
27666;SDS011;15074;50.940;5.282;2023-04-01T22:33:16;7.38;;;6.43;;
27666;SDS011;15074;50.940;5.282;2023-04-01T22:35:55;7.93;;;7.13;;
27666;SDS011;15074;50.940;5.282;2023-04-01T22:41:14;6.93;;;6.20;;
27666;SDS011;15074;50.940;5.282;2023-04-01T22:44:02;8.15;;;7.35;;
27666;SDS011;15074;50.940;5.282;2023-04-01T22:49:18;7.50;;;6.75;;
27666;SDS011;15074;50.940;5.282;2023-04-01T22:51:57;9.20;;;8.13;;
27666;SDS011;15074;50.940;5.282;2023-04-01T22:54:41;9.02;;;8.07;;
27666;SDS011;15074;50.940;5.282;2023-04-01T23:00:20;9.90;;;8.90;;
27666;SDS011;15074;50.940;5.282;2023-04-01T23:05:39;10.20;;;9.10;;
27666;SDS011;15074;50.940;5.282;2023-04-01T23:11:37;10.40;;;9.07;;
27666;SDS011;15074;50.940;5.282;2023-04-01T23:16:55;11.50;;;10.40;;
27666;SDS011;15074;50.940;5.282;2023-04-01T23:19:48;10.70;;;9.57;;
27666;SDS011;15074;50.940;5.282;2023-04-01T23:24:53;11.48;;;10.27;;
27666;SDS011;15074;50.940;5.282;2023-04-01T23:27:31;12.85;;;11.57;;
27666;SDS011;15074;50.940;5.282;2023-04-01T23:30:02;14.15;;;12.75;;
27666;SDS011;15074;50.940;5.282;2023-04-01T23:32:28;12.23;;;11.02;;
27666;SDS011;15074;50.940;5.282;2023-04-01T23:34:58;15.65;;;12.23;;
27666;SDS011;15074;50.940;5.282;2023-04-01T23:37:24;12.80;;;11.45;;
27666;SDS011;15074;50.940;5.282;2023-04-01T23:39:52;11.90;;;10.70;;
27666;SDS011;15074;50.940;5.282;2023-04-01T23:42:29;11.13;;;9.98;;
27666;SDS011;15074;50.940;5.282;2023-04-01T23:44:59;10.57;;;9.32;;
27666;SDS011;15074;50.940;5.282;2023-04-01T23:47:42;9.70;;;8.70;;
27666;SDS011;15074;50.940;5.282;2023-04-01T23:50:11;9.05;;;8.07;;
27666;SDS011;15074;50.940;5.282;2023-04-01T23:53:03;9.07;;;8.02;;
27666;SDS011;15074;50.940;5.282;2023-04-01T23:55:32;9.98;;;8.98;;
